Kezdőlap
METAR-TAF:

METAR-TAF

Repülőterek :

Curaçao, Holland Antillák

földrajzi szélesség: 12-12N, földrajzi hosszúság: 068-58W, magasság: 9 m

Jelenlegi meteorológiai megfigyelések

A jelentés 45 perccel ezelõtt készült, 07:00 UTC
Keleti szél 11 kt
Hőmérséklet 27°C
Páratartalom 74%
Légköri nyomás 1012 hPa
Látótávolság 10 km, vagy több

METAR: TNCC 230700Z AUTO 10011KT 9999 NSC 27/22 Q1012

Idő: 03:45 (07:45 UTC)

Előrejelzés

A jelentés 3 órával és 45 perccel ezelõtt készült, 04:00 UTC
Az előrejelzés 23-én 06 óra UTC és 24-én 06 óra UTC között érvényes
Keleti szél 13 kt
Látótávolság 10 km, vagy több
Szórványos felhőzet 1800 lábon

TAF: TNCC 230400Z 2306/2406 10013KT 9999 SCT018

Meteorológiai megfigyelések és előrejelzések több, mint 4000 repülőtéren (METAR és TAF jelentéseket).

A térképen piros és sárga pontok jelzik az elérhető meteorológiai állomásokat.

Mozgassa az egeret a pont fölött, hogy megjelenjen az állomás neve.

Azután kattintson az időjárási megfigyelések és előrejelzések megtekintéséhez.

A térkép megváltoztatása: kattintson a fekete keresztel jelölt zöld gombra ráközelítéshez, a vonallal jelölt zöld gombra távolításhoz, vagy a zöld nyilakra a szomszédos térképek eléréséhez.


METAR-TAF: